createdAt,value
2019-05-22T00:00:38.580Z,41.23
2019-05-22T00:03:13.443Z,39.97
2019-05-22T00:05:46.778Z,39.80
2019-05-22T00:08:20.104Z,41.87
2019-05-22T00:10:54.494Z,39.40
2019-05-22T00:13:34.621Z,44.27
2019-05-22T00:16:07.783Z,39.93
2019-05-22T00:18:40.690Z,41.70
2019-05-22T00:21:12.885Z,41.00
2019-05-22T00:23:45.432Z,46.13
2019-05-22T00:26:18.664Z,42.17
2019-05-22T00:28:50.399Z,42.67
2019-05-22T00:31:23.461Z,45.93
2019-05-22T00:33:56.088Z,44.17
2019-05-22T00:36:30.146Z,43.30
2019-05-22T00:39:03.521Z,45.07
2019-05-22T00:41:37.816Z,39.33
2019-05-22T00:44:12.915Z,43.37
2019-05-22T00:46:44.788Z,43.77
2019-05-22T00:49:18.125Z,39.93
2019-05-22T00:52:22.743Z,41.67
2019-05-22T00:55:07.506Z,44.07
2019-05-22T00:57:53.954Z,41.27
2019-05-22T01:00:39.725Z,43.47
2019-05-22T01:03:16.494Z,40.90
2019-05-22T01:05:49.455Z,42.77
2019-05-22T01:08:22.237Z,42.17
2019-05-22T01:10:54.740Z,43.50
2019-05-22T01:13:30.906Z,45.03
2019-05-22T01:16:05.304Z,41.97
2019-05-22T01:18:39.125Z,38.33
2019-05-22T01:21:14.332Z,44.77
2019-05-22T01:23:45.903Z,41.60
2019-05-22T01:26:19.247Z,41.90
2019-05-22T01:28:51.098Z,44.00
2019-05-22T01:31:31.156Z,43.30
2019-05-22T01:34:11.495Z,42.03
2019-05-22T01:36:47.286Z,40.33
2019-05-22T01:39:39.460Z,42.43
2019-05-22T01:42:14.237Z,40.23
2019-05-22T01:45:00.940Z,42.63
2019-05-22T01:48:05.603Z,43.90
2019-05-22T01:50:57.495Z,42.30
2019-05-22T01:53:36.133Z,43.60
2019-05-22T01:56:11.174Z,43.80
2019-05-22T01:58:43.766Z,43.37
2019-05-22T02:01:21.750Z,47.07
2019-05-22T02:03:56.682Z,46.03
2019-05-22T02:06:29.227Z,47.10
2019-05-22T02:09:30.875Z,48.93
2019-05-22T02:12:13.665Z,46.00
2019-05-22T02:14:49.879Z,46.13
2019-05-22T02:17:29.510Z,43.70
2019-05-22T02:20:01.676Z,43.17
2019-05-22T02:22:34.097Z,46.20
2019-05-22T02:25:06.811Z,43.37
2019-05-22T02:27:39.927Z,46.80
2019-05-22T02:30:13.845Z,48.57
2019-05-22T02:32:47.441Z,46.57
2019-05-22T02:35:19.663Z,44.57
2019-05-22T02:37:53.148Z,44.60
2019-05-22T02:40:31.664Z,41.83
2019-05-22T02:43:03.784Z,42.30
2019-05-22T02:45:35.932Z,43.03
2019-05-22T02:48:09.439Z,43.90
2019-05-22T02:50:42.066Z,48.43
2019-05-22T02:53:16.043Z,47.10
2019-05-22T02:55:49.196Z,43.33
2019-05-22T02:58:22.671Z,44.90
2019-05-22T03:01:04.982Z,47.13
2019-05-22T03:03:37.532Z,46.97
2019-05-22T03:06:14.347Z,46.43
2019-05-22T03:09:15.815Z,46.07
2019-05-22T03:11:59.290Z,44.73
2019-05-22T03:14:33.043Z,49.10
2019-05-22T03:17:09.940Z,45.23
2019-05-22T03:19:45.439Z,45.10
2019-05-22T03:22:31.060Z,43.90
2019-05-22T03:25:07.761Z,43.90
2019-05-22T03:27:44.923Z,49.87
2019-05-22T03:30:32.590Z,47.07
2019-05-22T03:33:05.948Z,44.37
2019-05-22T03:35:47.247Z,43.97
2019-05-22T03:38:21.334Z,44.70
2019-05-22T03:40:54.741Z,45.57
2019-05-22T03:43:29.671Z,46.60
2019-05-22T03:46:06.616Z,47.57
2019-05-22T03:48:38.881Z,50.50
2019-05-22T03:51:15.194Z,50.53
2019-05-22T03:53:48.500Z,45.27
2019-05-22T03:56:22.445Z,47.53
2019-05-22T03:58:55.309Z,46.57
2019-05-22T04:01:26.893Z,46.43
2019-05-22T04:03:59.680Z,47.50
2019-05-22T04:06:33.538Z,48.70
2019-05-22T04:09:23.003Z,46.53
2019-05-22T04:11:55.198Z,47.23
2019-05-22T04:14:40.196Z,44.43
2019-05-22T04:17:13.796Z,47.20
2019-05-22T04:19:49.898Z,43.30
2019-05-22T04:22:19.968Z,44.37
2019-05-22T04:24:52.133Z,45.33
2019-05-22T04:27:24.574Z,42.90
2019-05-22T04:29:57.643Z,48.47
2019-05-22T04:32:35.004Z,42.53
2019-05-22T04:35:11.365Z,47.87
2019-05-22T04:37:44.527Z,45.37
2019-05-22T04:40:59.325Z,44.40
2019-05-22T04:43:34.830Z,44.50
2019-05-22T04:46:09.777Z,43.70
2019-05-22T04:48:45.822Z,44.00
2019-05-22T04:51:31.891Z,47.90
2019-05-22T04:54:03.453Z,49.90
2019-05-22T04:56:35.612Z,47.13
2019-05-22T04:59:08.364Z,47.23
2019-05-22T05:01:41.239Z,51.80
2019-05-22T05:04:14.129Z,52.83
2019-05-22T05:06:45.674Z,47.60
2019-05-22T05:09:17.573Z,47.73
2019-05-22T05:11:49.622Z,45.03
2019-05-22T05:14:21.207Z,44.70
2019-05-22T05:16:52.784Z,42.70
2019-05-22T05:19:24.686Z,42.80
2019-05-22T05:21:56.549Z,42.30
2019-05-22T05:24:28.106Z,40.87
2019-05-22T05:27:00.777Z,44.73
2019-05-22T05:29:33.317Z,44.60
2019-05-22T05:32:05.791Z,44.57
2019-05-22T05:34:48.107Z,43.10
2019-05-22T05:37:23.474Z,40.80
2019-05-22T05:40:26.616Z,39.77
2019-05-22T05:42:58.625Z,44.97
2019-05-22T05:45:32.600Z,41.87
2019-05-22T05:48:08.215Z,38.03
2019-05-22T05:50:41.323Z,40.43
2019-05-22T05:53:18.701Z,43.67
2019-05-22T05:56:17.121Z,41.00
2019-05-22T05:58:48.716Z,39.80
2019-05-22T06:01:44.155Z,41.17
2019-05-22T06:04:34.115Z,44.90
2019-05-22T06:07:20.020Z,42.90
2019-05-22T06:11:00.486Z,41.40
2019-05-22T06:13:32.370Z,40.20
2019-05-22T06:17:06.730Z,43.37
2019-05-22T06:19:43.062Z,38.90
2019-05-22T06:22:16.430Z,39.63
2019-05-22T06:25:04.140Z,45.33
2019-05-22T06:27:44.971Z,45.30
2019-05-22T06:30:19.323Z,39.67
2019-05-22T06:33:29.788Z,43.17
2019-05-22T06:36:06.195Z,37.77
2019-05-22T06:39:03.244Z,42.30
2019-05-22T06:41:42.935Z,39.67
2019-05-22T06:44:43.739Z,44.37
2019-05-22T06:47:22.027Z,39.33
2019-05-22T06:49:58.569Z,41.63
2019-05-22T06:52:30.540Z,42.07
2019-05-22T06:55:02.710Z,44.43
2019-05-22T06:57:35.274Z,44.23
2019-05-22T07:00:16.689Z,41.30
2019-05-22T07:02:48.661Z,44.07
2019-05-22T07:05:20.261Z,40.70
2019-05-22T07:07:51.874Z,40.03
2019-05-22T07:10:23.767Z,40.40
2019-05-22T07:12:55.571Z,41.10
2019-05-22T07:15:55.602Z,42.10
2019-05-22T07:18:30.834Z,43.53
2019-05-22T07:21:03.690Z,40.00
2019-05-22T07:23:37.172Z,41.37
2019-05-22T07:26:09.233Z,38.67
2019-05-22T07:28:40.952Z,41.33
2019-05-22T07:31:12.523Z,40.50
2019-05-22T07:33:44.098Z,43.70
2019-05-22T07:36:17.225Z,40.50
2019-05-22T07:38:50.441Z,39.47
2019-05-22T07:41:22.060Z,43.30
2019-05-22T07:43:53.749Z,39.87
2019-05-22T07:46:26.303Z,42.80
2019-05-22T07:48:59.718Z,39.10
2019-05-22T07:51:32.064Z,37.90
2019-05-22T07:54:03.664Z,35.83
2019-05-22T07:56:35.437Z,36.73
2019-05-22T07:59:07.319Z,41.53
2019-05-22T08:01:39.720Z,33.53
2019-05-22T08:04:11.679Z,37.57
2019-05-22T08:06:43.591Z,37.00
2019-05-22T08:09:16.958Z,38.57
2019-05-22T08:11:48.952Z,37.50
2019-05-22T08:14:22.278Z,37.63
2019-05-22T08:16:54.398Z,37.27
2019-05-22T08:19:27.250Z,36.67
2019-05-22T08:22:07.456Z,34.30
2019-05-22T08:24:34.001Z,40.80
2019-05-22T08:27:08.432Z,35.77
2019-05-22T08:29:40.010Z,38.50
2019-05-22T08:32:13.068Z,42.43
2019-05-22T08:34:45.415Z,35.00
2019-05-22T08:37:22.828Z,35.63
2019-05-22T08:39:54.560Z,34.87
2019-05-22T08:42:27.705Z,33.83
2019-05-22T08:44:59.567Z,34.87
2019-05-22T08:47:32.296Z,30.17
2019-05-22T08:50:04.376Z,33.33
2019-05-22T08:52:36.189Z,35.00
2019-05-22T08:55:09.563Z,30.30
2019-05-22T08:57:44.681Z,32.87
2019-05-22T09:00:18.974Z,35.37
2019-05-22T09:02:51.286Z,35.53
2019-05-22T09:05:23.466Z,39.00
2019-05-22T09:07:55.071Z,31.43
2019-05-22T09:10:26.639Z,31.87
2019-05-22T09:12:58.218Z,33.93
2019-05-22T09:15:30.282Z,33.20
2019-05-22T09:18:02.863Z,32.20
2019-05-22T09:20:48.173Z,29.67
2019-05-22T09:23:08.451Z,29.10
2019-05-22T09:25:40.035Z,31.00
2019-05-22T09:28:12.493Z,30.80
2019-05-22T09:30:44.723Z,30.17
2019-05-22T09:33:17.706Z,27.27
2019-05-22T09:35:50.058Z,28.83
2019-05-22T09:38:22.263Z,26.47
2019-05-22T09:40:53.952Z,29.00
2019-05-22T09:43:25.558Z,29.33
2019-05-22T09:45:57.133Z,27.20
2019-05-22T09:48:28.723Z,26.10
2019-05-22T09:51:00.706Z,27.83
2019-05-22T09:53:32.834Z,28.03
2019-05-22T09:56:05.846Z,31.47
2019-05-22T09:58:37.502Z,28.10
2019-05-22T10:01:11.869Z,29.87
2019-05-22T10:03:44.412Z,26.10
2019-05-22T10:06:16.033Z,28.23
2019-05-22T10:08:47.695Z,25.43
2019-05-22T10:11:20.692Z,26.90
2019-05-22T10:13:52.678Z,25.07
2019-05-22T10:16:25.019Z,32.23
2019-05-22T10:18:56.720Z,28.80
2019-05-22T10:21:29.303Z,24.40
2019-05-22T10:24:01.970Z,23.77
2019-05-22T10:26:34.394Z,27.57
2019-05-22T10:29:06.368Z,23.73
2019-05-22T10:31:38.155Z,25.13
2019-05-22T10:34:09.745Z,24.83
2019-05-22T10:36:43.185Z,23.97
2019-05-22T10:39:14.880Z,25.70
2019-05-22T10:41:46.565Z,28.20
2019-05-22T10:44:19.067Z,21.73
2019-05-22T10:46:50.667Z,20.77
2019-05-22T10:49:22.263Z,23.70
2019-05-22T10:51:53.857Z,22.90
2019-05-22T10:54:25.720Z,23.07
2019-05-22T10:56:57.363Z,22.60
2019-05-22T10:59:28.950Z,22.17
2019-05-22T11:02:00.679Z,23.60
2019-05-22T11:04:32.643Z,26.67
2019-05-22T11:07:04.616Z,25.20
2019-05-22T11:09:37.243Z,23.90
2019-05-22T11:12:09.419Z,21.70
2019-05-22T11:14:41.104Z,22.27
2019-05-22T11:17:12.993Z,21.30
2019-05-22T11:19:45.452Z,22.83
2019-05-22T11:22:18.327Z,19.47
2019-05-22T11:24:49.910Z,21.60
2019-05-22T11:27:21.824Z,22.47
2019-05-22T11:29:54.121Z,20.87
2019-05-22T11:32:26.634Z,23.23
2019-05-22T11:34:58.688Z,21.03
2019-05-22T11:37:30.494Z,20.50
2019-05-22T11:40:02.581Z,20.90
2019-05-22T11:42:34.917Z,21.10
2019-05-22T11:45:07.377Z,18.40
2019-05-22T11:47:39.261Z,17.67
2019-05-22T11:50:12.820Z,19.77
2019-05-22T11:52:45.311Z,17.97
2019-05-22T11:55:18.209Z,20.20
2019-05-22T11:57:50.164Z,19.87
2019-05-22T12:00:24.005Z,19.80
2019-05-22T12:02:56.406Z,18.00
2019-05-22T12:05:28.204Z,21.30
2019-05-22T12:07:59.991Z,22.50
2019-05-22T12:10:31.813Z,20.83
2019-05-22T12:13:04.700Z,21.00
2019-05-22T12:15:37.041Z,24.47
2019-05-22T12:18:10.407Z,21.70
2019-05-22T12:20:42.022Z,23.80
2019-05-22T12:23:13.872Z,25.70
2019-05-22T12:25:45.604Z,22.93
2019-05-22T12:28:17.886Z,24.03
2019-05-22T12:30:50.296Z,25.47
2019-05-22T12:33:22.214Z,24.37
2019-05-22T12:35:54.240Z,28.13
2019-05-22T12:38:27.258Z,25.30
2019-05-22T12:40:59.606Z,24.20
2019-05-22T12:43:31.748Z,27.07
2019-05-22T12:46:03.948Z,26.37
2019-05-22T12:48:37.458Z,25.07
2019-05-22T12:51:09.716Z,26.10
2019-05-22T12:53:41.405Z,27.37
2019-05-22T12:56:13.296Z,28.30
2019-05-22T12:58:46.583Z,26.47
2019-05-22T13:01:19.660Z,25.80
2019-05-22T13:03:52.023Z,28.10
2019-05-22T13:06:23.817Z,26.67
2019-05-22T13:08:55.894Z,27.37
2019-05-22T13:11:27.724Z,25.73
2019-05-22T13:13:59.397Z,33.77
2019-05-22T13:16:32.917Z,28.63
2019-05-22T13:19:04.717Z,24.50
2019-05-22T13:21:39.393Z,29.40
2019-05-22T13:24:20.352Z,29.63
2019-05-22T13:26:53.943Z,18.43
2019-05-22T13:29:27.006Z,19.47
2019-05-22T13:31:59.637Z,22.07
2019-05-22T13:34:33.018Z,23.60
2019-05-22T13:37:04.860Z,25.00
2019-05-22T13:39:37.071Z,23.90
2019-05-22T13:42:13.313Z,28.23
2019-05-22T13:44:44.195Z,23.50
2019-05-22T13:47:16.488Z,25.33
2019-05-22T13:49:48.987Z,22.73
2019-05-22T13:52:20.921Z,22.90
2019-05-22T13:54:52.881Z,22.50
2019-05-22T13:57:25.674Z,20.70
2019-05-22T13:59:57.305Z,23.50
2019-05-22T14:02:29.493Z,21.57
2019-05-22T14:05:01.354Z,21.70
2019-05-22T14:07:33.784Z,19.90
2019-05-22T14:10:06.888Z,20.00
2019-05-22T14:12:38.693Z,20.50
2019-05-22T14:15:10.686Z,18.30
2019-05-22T14:17:43.084Z,19.40
2019-05-22T14:20:15.662Z,14.40
2019-05-22T14:22:47.239Z,14.13
2019-05-22T14:25:21.694Z,13.20
2019-05-22T14:27:53.329Z,13.73
2019-05-22T14:30:26.673Z,12.77
2019-05-22T14:33:04.391Z,14.83
2019-05-22T14:35:47.620Z,12.47
2019-05-22T14:38:10.475Z,13.10
2019-05-22T14:40:43.868Z,13.43
2019-05-22T14:43:15.652Z,15.30
2019-05-22T14:45:47.564Z,13.33
2019-05-22T14:48:19.450Z,15.40
2019-05-22T14:50:51.126Z,14.07
2019-05-22T14:53:24.227Z,15.30
2019-05-22T14:55:56.296Z,15.33
2019-05-22T14:58:28.502Z,15.63
2019-05-22T15:01:00.401Z,14.13
2019-05-22T15:03:32.222Z,13.37
2019-05-22T15:06:04.327Z,13.30
2019-05-22T15:08:35.948Z,16.93
2019-05-22T15:11:07.559Z,14.00
2019-05-22T15:13:39.476Z,14.07
2019-05-22T15:16:11.132Z,13.40
2019-05-22T15:18:42.983Z,12.60
2019-05-22T15:21:16.950Z,13.70
2019-05-22T15:23:51.018Z,13.23
2019-05-22T15:26:23.297Z,12.33
2019-05-22T15:28:54.924Z,12.37
2019-05-22T15:31:26.612Z,11.93
2019-05-22T15:33:59.221Z,12.80
2019-05-22T15:36:31.586Z,10.87
2019-05-22T15:39:05.180Z,10.27
2019-05-22T15:41:37.736Z,10.63
2019-05-22T15:44:10.145Z,11.30
2019-05-22T15:46:42.669Z,12.20
2019-05-22T15:49:16.249Z,11.40
2019-05-22T15:51:50.368Z,10.87
2019-05-22T15:54:22.052Z,11.57
2019-05-22T15:56:56.335Z,9.63
2019-05-22T15:59:30.836Z,9.50
2019-05-22T16:02:04.977Z,11.00
2019-05-22T16:04:38.937Z,12.50
2019-05-22T16:07:12.233Z,9.80
2019-05-22T16:09:47.592Z,9.77
2019-05-22T16:12:19.212Z,9.93
2019-05-22T16:14:53.047Z,11.37
2019-05-22T16:17:25.056Z,10.00
2019-05-22T16:19:56.648Z,10.63
2019-05-22T16:22:28.771Z,9.33
2019-05-22T16:25:00.559Z,9.03
2019-05-22T16:27:32.983Z,10.53
2019-05-22T16:30:05.608Z,10.83
2019-05-22T16:32:38.292Z,9.83
2019-05-22T16:35:10.691Z,11.43
2019-05-22T16:37:42.343Z,9.90
2019-05-22T16:40:14.691Z,10.10
2019-05-22T16:42:46.459Z,10.87
2019-05-22T16:45:18.600Z,9.97
2019-05-22T16:47:50.177Z,11.63
2019-05-22T16:50:22.599Z,10.50
2019-05-22T16:52:56.352Z,9.40
2019-05-22T16:55:30.108Z,9.00
2019-05-22T16:58:01.979Z,8.03
2019-05-22T17:00:33.622Z,8.13
2019-05-22T17:03:06.467Z,9.00
2019-05-22T17:05:38.232Z,6.83
2019-05-22T17:08:10.867Z,7.10
2019-05-22T17:10:43.344Z,7.57
2019-05-22T17:13:17.322Z,7.67
2019-05-22T17:15:49.125Z,8.47
2019-05-22T17:18:21.324Z,7.00
2019-05-22T17:20:52.971Z,9.57
2019-05-22T17:23:24.786Z,7.30
2019-05-22T17:25:57.457Z,6.07
2019-05-22T17:28:30.462Z,6.40
2019-05-22T17:31:02.284Z,5.97
2019-05-22T17:33:34.713Z,5.27
2019-05-22T17:36:11.052Z,4.57
2019-05-22T17:38:43.230Z,3.93
2019-05-22T17:41:15.351Z,4.03
2019-05-22T17:43:47.827Z,4.07
2019-05-22T17:46:21.520Z,4.90
2019-05-22T17:48:53.731Z,5.03
2019-05-22T17:51:26.717Z,4.37
2019-05-22T17:53:58.981Z,3.67
2019-05-22T17:56:31.255Z,4.90
2019-05-22T17:59:03.471Z,4.30
2019-05-22T18:01:35.691Z,4.10
2019-05-22T18:04:07.371Z,7.20
2019-05-22T18:06:39.060Z,4.93
2019-05-22T18:09:11.724Z,6.03
2019-05-22T18:11:43.365Z,4.90
2019-05-22T18:14:15.193Z,4.97
2019-05-22T18:16:46.918Z,6.20
2019-05-22T18:19:18.879Z,4.63
2019-05-22T18:21:50.973Z,5.77
2019-05-22T18:24:23.272Z,5.40
2019-05-22T18:26:54.883Z,6.60
2019-05-22T18:29:26.591Z,9.00
2019-05-22T18:31:58.195Z,6.50
2019-05-22T18:34:30.112Z,6.10
2019-05-22T18:37:01.875Z,6.60
2019-05-22T18:39:34.012Z,6.70
2019-05-22T18:42:05.730Z,7.07
2019-05-22T18:44:37.436Z,7.40
2019-05-22T18:47:10.201Z,7.30
2019-05-22T18:49:41.970Z,7.57
2019-05-22T18:52:13.564Z,8.40
2019-05-22T18:54:45.526Z,8.07
2019-05-22T18:57:17.609Z,8.43
2019-05-22T18:59:49.225Z,7.77
2019-05-22T19:02:20.887Z,7.20
2019-05-22T19:04:52.526Z,8.63
2019-05-22T19:07:24.162Z,8.33
2019-05-22T19:09:55.766Z,10.77
2019-05-22T19:12:28.592Z,11.67
2019-05-22T19:15:00.243Z,7.13
2019-05-22T19:17:31.943Z,8.00
2019-05-22T19:20:03.762Z,7.97
2019-05-22T19:22:35.446Z,171.83
2019-05-22T19:25:07.677Z,16.73
2019-05-22T19:27:39.366Z,10.17
2019-05-22T19:30:13.782Z,20.43
2019-05-22T19:32:46.070Z,47.10
2019-05-22T19:35:17.695Z,48.40
2019-05-22T19:37:50.268Z,29.90
2019-05-22T19:40:21.916Z,18.90
2019-05-22T19:42:54.656Z,13.13
2019-05-22T19:45:26.673Z,11.20
2019-05-22T19:47:59.596Z,10.07
2019-05-22T19:50:31.334Z,9.93
2019-05-22T19:53:18.168Z,9.40
2019-05-22T19:55:40.887Z,12.23
2019-05-22T19:58:12.976Z,9.87
2019-05-22T20:00:45.636Z,10.50
2019-05-22T20:03:19.027Z,12.60
2019-05-22T20:05:50.992Z,8.30
2019-05-22T20:08:23.035Z,8.53
2019-05-22T20:10:54.868Z,11.47
2019-05-22T20:13:27.264Z,10.70
2019-05-22T20:15:59.466Z,12.83
2019-05-22T20:18:31.376Z,11.23
2019-05-22T20:21:03.738Z,12.87
2019-05-22T20:23:37.065Z,11.67
2019-05-22T20:26:09.055Z,10.30
2019-05-22T20:28:40.839Z,10.10
2019-05-22T20:31:12.578Z,11.43
2019-05-22T20:33:44.266Z,11.40
2019-05-22T20:36:16.188Z,10.87
2019-05-22T20:38:47.805Z,12.73
2019-05-22T20:41:21.330Z,11.20
2019-05-22T20:43:53.071Z,11.70
2019-05-22T20:46:25.009Z,14.70
2019-05-22T20:48:57.311Z,10.53
2019-05-22T20:51:31.140Z,10.70
2019-05-22T20:54:03.021Z,14.00
2019-05-22T20:56:37.525Z,15.63
2019-05-22T20:59:10.641Z,11.70
2019-05-22T21:01:42.487Z,11.60
2019-05-22T21:04:17.198Z,12.63
2019-05-22T21:07:00.293Z,34.07
2019-05-22T21:09:32.468Z,29.40
2019-05-22T21:12:04.985Z,26.00
2019-05-22T21:14:37.257Z,19.53
2019-05-22T21:17:10.995Z,20.67
2019-05-22T21:19:43.102Z,16.93
2019-05-22T21:22:19.871Z,20.23
2019-05-22T21:24:53.173Z,13.13
2019-05-22T21:27:25.183Z,15.80
2019-05-22T21:29:57.679Z,18.10
2019-05-22T21:32:30.995Z,16.07
2019-05-22T21:35:03.017Z,13.80
2019-05-22T21:37:34.930Z,15.20
2019-05-22T21:40:08.107Z,39.63
2019-05-22T21:42:41.927Z,30.90
2019-05-22T21:45:14.370Z,36.90
2019-05-22T21:47:46.396Z,24.63
2019-05-22T21:50:19.940Z,15.60
2019-05-22T21:52:52.216Z,13.13
2019-05-22T21:55:25.666Z,12.97
2019-05-22T21:57:57.375Z,16.63
2019-05-22T22:00:50.989Z,13.80
2019-05-22T22:03:26.760Z,12.40
2019-05-22T22:05:59.289Z,12.37
2019-05-22T22:08:31.378Z,14.73
2019-05-22T22:11:03.693Z,12.17
2019-05-22T22:13:37.321Z,12.60
2019-05-22T22:16:09.630Z,15.63
2019-05-22T22:18:41.322Z,13.30
2019-05-22T22:21:13.859Z,14.17
2019-05-22T22:23:47.049Z,14.33
2019-05-22T22:26:25.798Z,13.93
2019-05-22T22:28:53.351Z,14.53
2019-05-22T22:31:27.225Z,12.80
2019-05-22T22:34:11.029Z,14.40
2019-05-22T22:36:42.644Z,12.00
2019-05-22T22:39:17.578Z,14.50
2019-05-22T22:41:49.162Z,11.90
2019-05-22T22:44:21.622Z,14.23
2019-05-22T22:46:57.752Z,16.40
2019-05-22T22:49:30.361Z,13.50
2019-05-22T22:52:01.940Z,17.13
2019-05-22T22:54:34.608Z,14.00
2019-05-22T22:57:07.097Z,13.57
2019-05-22T22:59:38.832Z,13.97
2019-05-22T23:02:14.283Z,26.33
2019-05-22T23:04:47.387Z,14.63
2019-05-22T23:07:20.457Z,13.27
2019-05-22T23:09:52.228Z,14.67
2019-05-22T23:12:24.236Z,16.83
2019-05-22T23:15:00.297Z,14.87
2019-05-22T23:17:32.274Z,12.10
2019-05-22T23:20:03.404Z,16.43
2019-05-22T23:22:32.752Z,14.53
2019-05-22T23:25:06.437Z,16.47
2019-05-22T23:27:39.214Z,14.53
2019-05-22T23:30:11.861Z,13.70
2019-05-22T23:32:44.496Z,12.90
2019-05-22T23:35:17.239Z,14.87
2019-05-22T23:37:49.613Z,15.47
2019-05-22T23:40:27.533Z,12.97
2019-05-22T23:43:00.569Z,18.33
2019-05-22T23:45:32.165Z,15.90
2019-05-22T23:48:14.594Z,13.83
2019-05-22T23:50:47.219Z,12.60
2019-05-22T23:53:20.988Z,12.83
2019-05-22T23:55:54.096Z,12.53
2019-05-22T23:58:26.247Z,13.43
